createdAt,value
2018-03-11T00:00:02.167Z,9.46
2018-03-11T00:01:01.810Z,9.45
2018-03-11T00:02:01.866Z,9.47
2018-03-11T00:03:01.820Z,9.47
2018-03-11T00:04:01.962Z,9.46
2018-03-11T00:05:01.853Z,9.45
2018-03-11T00:06:01.837Z,9.45
2018-03-11T00:07:01.843Z,9.43
2018-03-11T00:08:01.847Z,9.44
2018-03-11T00:09:03.290Z,9.44
2018-03-11T00:10:02.438Z,9.44
2018-03-11T00:11:02.117Z,9.45
2018-03-11T00:12:01.860Z,9.44
2018-03-11T00:13:01.866Z,9.45
2018-03-11T00:14:02.008Z,9.42
2018-03-11T00:15:01.868Z,9.41
2018-03-11T00:16:02.060Z,9.41
2018-03-11T00:17:01.924Z,9.42
2018-03-11T00:18:01.993Z,9.42
2018-03-11T00:19:01.912Z,9.43
2018-03-11T00:20:01.959Z,9.42
2018-03-11T00:21:01.996Z,9.41
2018-03-11T00:22:01.864Z,9.43
2018-03-11T00:23:01.880Z,9.41
2018-03-11T00:24:01.890Z,9.42
2018-03-11T00:25:01.922Z,9.42
2018-03-11T00:26:02.181Z,9.43
2018-03-11T00:27:02.047Z,9.44
2018-03-11T00:28:01.923Z,9.42
2018-03-11T00:29:01.916Z,9.45
2018-03-11T00:30:01.910Z,9.46
2018-03-11T00:31:01.910Z,9.46
2018-03-11T00:32:02.104Z,9.46
2018-03-11T00:33:02.000Z,9.49
2018-03-11T00:34:02.008Z,9.5
2018-03-11T00:35:02.007Z,9.51
2018-03-11T00:36:01.971Z,9.52
2018-03-11T00:37:02.039Z,9.49
2018-03-11T00:38:01.950Z,9.52
2018-03-11T00:39:01.983Z,9.52
2018-03-11T00:40:01.953Z,9.52
2018-03-11T00:41:01.942Z,9.55
2018-03-11T00:42:01.979Z,9.54
2018-03-11T00:43:01.962Z,9.53
2018-03-11T00:44:01.958Z,9.54
2018-03-11T00:45:01.958Z,9.58
2018-03-11T00:46:01.977Z,9.57
2018-03-11T00:47:02.052Z,9.58
2018-03-11T00:48:02.006Z,9.6
2018-03-11T00:49:02.314Z,9.58
2018-03-11T00:50:01.968Z,9.6
2018-03-11T00:51:01.988Z,9.59
2018-03-11T00:52:01.970Z,9.58
2018-03-11T00:53:02.001Z,9.58
2018-03-11T00:54:01.996Z,9.57
2018-03-11T00:55:01.989Z,9.58
2018-03-11T00:56:01.992Z,9.59
2018-03-11T00:57:01.972Z,9.59
2018-03-11T00:58:02.028Z,9.58
2018-03-11T00:59:02.078Z,9.57
2018-03-11T01:00:01.993Z,9.58
2018-03-11T01:01:01.996Z,9.57
2018-03-11T01:02:02.078Z,9.58
2018-03-11T01:03:02.078Z,9.58
2018-03-11T01:04:02.116Z,9.6
2018-03-11T01:05:02.025Z,9.6
2018-03-11T01:06:02.071Z,9.57
2018-03-11T01:07:02.347Z,9.57
2018-03-11T01:08:02.043Z,9.58
2018-03-11T01:09:02.025Z,9.61
2018-03-11T01:10:02.215Z,9.59
2018-03-11T01:11:02.087Z,9.59
2018-03-11T01:12:02.029Z,9.58
2018-03-11T01:13:02.081Z,9.61
2018-03-11T01:14:02.116Z,9.59
2018-03-11T01:15:02.476Z,9.59
2018-03-11T01:16:02.050Z,9.57
2018-03-11T01:17:02.388Z,9.58
2018-03-11T01:18:02.068Z,9.56
2018-03-11T01:19:05.809Z,9.56
2018-03-11T01:20:02.875Z,9.54
2018-03-11T01:21:08.175Z,9.53
2018-03-11T01:22:03.248Z,9.52
2018-03-11T01:23:03.411Z,9.51
2018-03-11T01:24:06.084Z,9.51
2018-03-11T01:25:21.701Z,9.51
2018-03-11T01:26:02.104Z,9.51
2018-03-11T01:27:02.091Z,9.5
2018-03-11T01:28:02.131Z,9.47
2018-03-11T01:29:02.092Z,9.46
2018-03-11T01:30:02.115Z,9.45
2018-03-11T01:31:02.150Z,9.44
2018-03-11T01:32:02.101Z,9.46
2018-03-11T01:33:02.126Z,9.46
2018-03-11T01:34:02.112Z,9.46
2018-03-11T01:35:02.485Z,9.46
2018-03-11T01:36:02.106Z,9.46
2018-03-11T01:37:02.112Z,9.45
2018-03-11T01:38:02.137Z,9.45
2018-03-11T01:39:02.122Z,9.46
2018-03-11T01:40:02.128Z,9.45
2018-03-11T01:41:02.143Z,9.45
2018-03-11T01:42:02.126Z,9.44
2018-03-11T01:43:02.143Z,9.41
2018-03-11T01:44:02.127Z,9.43
2018-03-11T01:45:02.157Z,9.43
2018-03-11T01:46:02.174Z,9.42
2018-03-11T01:47:02.183Z,9.42
2018-03-11T01:48:02.142Z,9.4
2018-03-11T01:49:02.184Z,9.41
2018-03-11T01:50:02.170Z,9.41
2018-03-11T01:51:02.164Z,9.42
2018-03-11T01:52:02.165Z,9.42
2018-03-11T01:53:02.174Z,9.42
2018-03-11T01:54:02.177Z,9.44
2018-03-11T01:55:02.195Z,9.44
2018-03-11T01:56:02.181Z,9.45
2018-03-11T01:57:02.246Z,9.45
2018-03-11T01:58:02.219Z,9.49
2018-03-11T01:59:02.211Z,9.53
2018-03-11T02:00:02.191Z,9.53
2018-03-11T02:01:02.205Z,9.53
2018-03-11T02:02:02.217Z,9.54
2018-03-11T02:03:02.202Z,9.54
2018-03-11T02:04:02.246Z,9.55
2018-03-11T02:05:02.267Z,9.59
2018-03-11T02:06:02.259Z,9.59
2018-03-11T02:07:02.223Z,9.59
2018-03-11T02:08:02.258Z,9.6
2018-03-11T02:09:02.265Z,9.63
2018-03-11T02:10:02.232Z,9.63
2018-03-11T02:11:02.245Z,9.65
2018-03-11T02:12:02.253Z,9.66
2018-03-11T02:13:02.254Z,9.65
2018-03-11T02:14:02.253Z,9.67
2018-03-11T02:15:02.316Z,9.65
2018-03-11T02:16:02.254Z,9.66
2018-03-11T02:17:02.263Z,9.69
2018-03-11T02:18:02.267Z,9.66
2018-03-11T02:19:02.277Z,9.7
2018-03-11T02:20:02.297Z,9.68
2018-03-11T02:21:02.258Z,9.71
2018-03-11T02:22:02.301Z,9.71
2018-03-11T02:23:02.276Z,9.73
2018-03-11T02:24:02.295Z,9.71
2018-03-11T02:25:02.291Z,9.72
2018-03-11T02:26:02.319Z,9.71
2018-03-11T02:27:02.359Z,9.71
2018-03-11T02:28:02.291Z,9.72
2018-03-11T02:29:02.306Z,9.71
2018-03-11T02:30:02.324Z,9.72
2018-03-11T02:31:02.298Z,9.72
2018-03-11T02:32:02.309Z,9.72
2018-03-11T02:33:02.346Z,9.75
2018-03-11T02:34:02.328Z,9.73
2018-03-11T02:35:02.327Z,9.76
2018-03-11T02:36:02.351Z,9.74
2018-03-11T02:37:02.346Z,9.76
2018-03-11T02:38:02.327Z,9.76
2018-03-11T02:39:02.332Z,9.76
2018-03-11T02:40:02.397Z,9.78
2018-03-11T02:41:02.390Z,9.76
2018-03-11T02:42:02.360Z,9.76
2018-03-11T02:43:02.353Z,9.76
2018-03-11T02:44:02.363Z,9.74
2018-03-11T02:45:02.430Z,9.77
2018-03-11T02:46:02.366Z,9.76
2018-03-11T02:47:02.393Z,9.76
2018-03-11T02:48:02.388Z,9.78
2018-03-11T02:49:02.460Z,9.79
2018-03-11T02:50:02.478Z,9.79
2018-03-11T02:51:02.436Z,9.8
2018-03-11T02:52:02.404Z,9.82
2018-03-11T02:53:02.414Z,9.82
2018-03-11T02:54:02.416Z,9.83
2018-03-11T02:55:02.426Z,9.84
2018-03-11T02:56:02.409Z,9.86
2018-03-11T02:57:02.411Z,9.84
2018-03-11T02:58:02.454Z,9.83
2018-03-11T02:59:02.444Z,9.83
2018-03-11T03:00:02.417Z,9.83
2018-03-11T03:01:02.427Z,9.83
2018-03-11T03:02:02.421Z,9.84
2018-03-11T03:03:02.441Z,9.83
2018-03-11T03:04:02.473Z,9.83
2018-03-11T03:05:02.477Z,9.86
2018-03-11T03:06:02.417Z,9.86
2018-03-11T03:07:02.423Z,9.87
2018-03-11T03:08:02.441Z,9.86
2018-03-11T03:09:02.445Z,9.84
2018-03-11T03:10:02.677Z,9.87
2018-03-11T03:11:02.459Z,9.84
2018-03-11T03:12:02.450Z,9.88
2018-03-11T03:13:02.441Z,9.87
2018-03-11T03:14:02.450Z,9.86
2018-03-11T03:15:02.526Z,9.88
2018-03-11T03:16:02.483Z,9.89
2018-03-11T03:17:02.565Z,9.91
2018-03-11T03:18:02.550Z,9.9
2018-03-11T03:19:02.502Z,9.9
2018-03-11T03:20:02.482Z,9.91
2018-03-11T03:21:02.495Z,9.9
2018-03-11T03:22:02.491Z,9.93
2018-03-11T03:23:02.489Z,9.91
2018-03-11T03:24:02.492Z,9.94
2018-03-11T03:25:02.493Z,9.93
2018-03-11T03:26:02.526Z,9.94
2018-03-11T03:27:02.529Z,9.93
2018-03-11T03:28:02.510Z,9.93
2018-03-11T03:29:02.504Z,9.93
2018-03-11T03:30:02.555Z,9.95
2018-03-11T03:31:02.840Z,9.95
2018-03-11T03:32:02.594Z,9.95
2018-03-11T03:33:02.602Z,9.96
2018-03-11T03:34:02.527Z,9.96
2018-03-11T03:35:02.517Z,9.96
2018-03-11T03:36:02.542Z,9.96
2018-03-11T03:37:02.535Z,9.97
2018-03-11T03:38:02.513Z,9.97
2018-03-11T03:39:02.525Z,9.96
2018-03-11T03:40:02.517Z,9.96
2018-03-11T03:41:02.523Z,9.97
2018-03-11T03:42:03.123Z,9.98
2018-03-11T03:43:03.386Z,9.99
2018-03-11T03:44:02.573Z,9.97
2018-03-11T03:45:02.788Z,9.99
2018-03-11T03:46:02.852Z,9.97
2018-03-11T03:47:03.560Z,9.97
2018-03-11T03:48:02.583Z,10
2018-03-11T03:49:02.865Z,10
2018-03-11T03:50:03.023Z,9.99
2018-03-11T03:51:02.630Z,9.98
2018-03-11T03:52:03.391Z,9.99
2018-03-11T03:53:02.568Z,10
2018-03-11T03:54:02.565Z,9.97
2018-03-11T03:55:02.584Z,9.96
2018-03-11T03:56:02.559Z,9.96
2018-03-11T03:57:02.565Z,9.96
2018-03-11T03:58:02.585Z,9.97
2018-03-11T03:59:02.604Z,9.98
2018-03-11T04:00:02.582Z,9.99
2018-03-11T04:01:02.583Z,9.98
2018-03-11T04:02:02.665Z,9.98
2018-03-11T04:03:02.627Z,9.97
2018-03-11T04:04:02.586Z,10
2018-03-11T04:05:02.585Z,9.97
2018-03-11T04:06:02.830Z,9.99
2018-03-11T04:07:02.748Z,10
2018-03-11T04:08:02.753Z,9.99
2018-03-11T04:09:02.759Z,9.99
2018-03-11T04:10:02.759Z,10.02
2018-03-11T04:11:02.756Z,10.01
2018-03-11T04:12:02.683Z,10.01
2018-03-11T04:13:02.732Z,10.02
2018-03-11T04:14:02.734Z,10.02
2018-03-11T04:15:02.742Z,10.03
2018-03-11T04:16:02.625Z,10.02
2018-03-11T04:17:02.698Z,10.02
2018-03-11T04:18:02.668Z,10.03
2018-03-11T04:19:02.661Z,10.03
2018-03-11T04:20:02.658Z,10.05
2018-03-11T04:21:02.813Z,10.04
2018-03-11T04:22:02.755Z,10.07
2018-03-11T04:23:02.804Z,10.07
2018-03-11T04:24:02.755Z,10.08
2018-03-11T04:25:02.762Z,10.08
2018-03-11T04:26:02.767Z,10.09
2018-03-11T04:27:02.781Z,10.08
2018-03-11T04:28:02.782Z,10.07
2018-03-11T04:29:02.769Z,10.07
2018-03-11T04:30:02.786Z,10.07
2018-03-11T04:31:02.799Z,10.07
2018-03-11T04:32:02.818Z,10.06
2018-03-11T04:33:02.814Z,10.06
2018-03-11T04:34:02.776Z,10.07
2018-03-11T04:35:02.824Z,10.06
2018-03-11T04:36:02.776Z,10.04
2018-03-11T04:37:02.783Z,10.04
2018-03-11T04:38:03.096Z,10.03
2018-03-11T04:39:02.803Z,10.03
2018-03-11T04:40:02.846Z,10.05
2018-03-11T04:41:02.832Z,10.03
2018-03-11T04:42:02.769Z,10.02
2018-03-11T04:43:02.842Z,10.03
2018-03-11T04:44:02.935Z,10.03
2018-03-11T04:45:02.808Z,10.05
2018-03-11T04:46:02.817Z,10.02
2018-03-11T04:47:02.978Z,10.06
2018-03-11T04:48:02.959Z,10.06
2018-03-11T04:49:02.882Z,10.03
2018-03-11T04:50:02.870Z,10.03
2018-03-11T04:51:02.845Z,10.03
2018-03-11T04:52:02.947Z,10.04
2018-03-11T04:53:02.741Z,10.02
2018-03-11T04:54:02.736Z,10.02
2018-03-11T04:55:02.756Z,10.02
2018-03-11T04:56:02.834Z,10.02
2018-03-11T04:57:02.759Z,10.02
2018-03-11T04:58:02.814Z,10
2018-03-11T04:59:03.078Z,10
2018-03-11T05:00:02.775Z,10
2018-03-11T05:01:02.796Z,9.96
2018-03-11T05:02:02.792Z,9.96
2018-03-11T05:03:02.780Z,9.95
2018-03-11T05:04:02.803Z,9.96
2018-03-11T05:05:02.852Z,9.95
2018-03-11T05:06:02.835Z,9.96
2018-03-11T05:07:02.816Z,9.94
2018-03-11T05:08:02.952Z,9.94
2018-03-11T05:09:02.794Z,9.93
2018-03-11T05:10:02.819Z,9.93
2018-03-11T05:11:02.798Z,9.91
2018-03-11T05:12:02.828Z,9.91
2018-03-11T05:13:02.800Z,9.92
2018-03-11T05:14:02.810Z,9.93
2018-03-11T05:15:03.085Z,9.93
2018-03-11T05:16:02.832Z,9.91
2018-03-11T05:17:02.937Z,9.9
2018-03-11T05:18:02.834Z,9.9
2018-03-11T05:19:02.838Z,9.88
2018-03-11T05:20:02.865Z,9.87
2018-03-11T05:21:02.827Z,9.88
2018-03-11T05:22:02.838Z,9.87
2018-03-11T05:23:02.886Z,9.85
2018-03-11T05:24:02.867Z,9.84
2018-03-11T05:25:02.838Z,9.84
2018-03-11T05:26:02.900Z,9.84
2018-03-11T05:27:02.847Z,9.86
2018-03-11T05:28:02.852Z,9.84
2018-03-11T05:29:02.848Z,9.86
2018-03-11T05:30:02.884Z,9.83
2018-03-11T05:31:02.911Z,9.83
2018-03-11T05:32:02.929Z,9.82
2018-03-11T05:33:02.958Z,9.8
2018-03-11T05:34:02.948Z,9.8
2018-03-11T05:35:02.978Z,9.8
2018-03-11T05:36:02.894Z,9.78
2018-03-11T05:37:02.901Z,9.8
2018-03-11T05:38:02.907Z,9.8
2018-03-11T05:39:02.906Z,9.79
2018-03-11T05:40:02.908Z,9.76
2018-03-11T05:41:02.918Z,9.74
2018-03-11T05:42:02.922Z,9.72
2018-03-11T05:43:02.919Z,9.74
2018-03-11T05:44:02.911Z,9.71
2018-03-11T05:45:02.939Z,9.71
2018-03-11T05:46:02.921Z,9.72
2018-03-11T05:47:02.993Z,9.74
2018-03-11T05:48:02.927Z,9.74
2018-03-11T05:49:02.941Z,9.72
2018-03-11T05:50:02.933Z,9.74
2018-03-11T05:51:02.937Z,9.71
2018-03-11T05:52:02.991Z,9.71
2018-03-11T05:53:02.950Z,9.7
2018-03-11T05:54:02.954Z,9.7
2018-03-11T05:55:02.969Z,9.69
2018-03-11T05:56:02.975Z,9.69
2018-03-11T05:57:02.962Z,9.69
2018-03-11T05:58:02.989Z,9.69
2018-03-11T05:59:02.965Z,9.7
2018-03-11T06:00:03.001Z,9.7
2018-03-11T06:01:02.988Z,9.71
2018-03-11T06:02:03.016Z,9.71
2018-03-11T06:03:02.980Z,9.7
2018-03-11T06:04:03.012Z,9.7
2018-03-11T06:05:03.012Z,9.7
2018-03-11T06:06:02.999Z,9.69
2018-03-11T06:07:02.998Z,9.69
2018-03-11T06:08:03.001Z,9.7
2018-03-11T06:09:02.996Z,9.68
2018-03-11T06:10:03.009Z,9.68
2018-03-11T06:11:03.038Z,9.65
2018-03-11T06:12:02.998Z,9.65
2018-03-11T06:13:03.000Z,9.65
2018-03-11T06:14:03.026Z,9.67
2018-03-11T06:15:03.029Z,9.64
2018-03-11T06:16:03.033Z,9.64
2018-03-11T06:17:03.020Z,9.65
2018-03-11T06:18:03.099Z,9.64
2018-03-11T06:19:03.087Z,9.65
2018-03-11T06:20:03.110Z,9.64
2018-03-11T06:21:03.029Z,9.63
2018-03-11T06:22:03.035Z,9.63
2018-03-11T06:23:03.031Z,9.62
2018-03-11T06:24:03.046Z,9.63
2018-03-11T06:25:03.062Z,9.62
2018-03-11T06:26:03.043Z,9.61
2018-03-11T06:27:03.051Z,9.61
2018-03-11T06:28:03.062Z,9.59
2018-03-11T06:29:03.058Z,9.6
2018-03-11T06:30:03.091Z,9.59
2018-03-11T06:31:03.083Z,9.58
2018-03-11T06:32:03.086Z,9.6
2018-03-11T06:33:03.082Z,9.59
2018-03-11T06:34:03.093Z,9.59
2018-03-11T06:35:03.093Z,9.62
2018-03-11T06:36:03.098Z,9.6
2018-03-11T06:37:03.132Z,9.63
2018-03-11T06:38:03.123Z,9.62
2018-03-11T06:39:03.121Z,9.61
2018-03-11T06:40:03.097Z,9.63
2018-03-11T06:41:03.140Z,9.63
2018-03-11T06:42:03.110Z,9.68
2018-03-11T06:43:03.182Z,9.67
2018-03-11T06:44:03.115Z,9.69
2018-03-11T06:45:03.117Z,9.67
2018-03-11T06:46:03.173Z,9.71
2018-03-11T06:47:03.163Z,9.71
2018-03-11T06:48:03.161Z,9.73
2018-03-11T06:49:03.142Z,9.79
2018-03-11T06:50:03.144Z,9.77
2018-03-11T06:51:03.158Z,9.8
2018-03-11T06:52:03.125Z,9.82
2018-03-11T06:53:03.129Z,9.85
2018-03-11T06:54:03.151Z,9.9
2018-03-11T06:55:03.147Z,9.91
2018-03-11T06:56:03.179Z,9.95
2018-03-11T06:57:03.151Z,9.97
2018-03-11T06:58:03.236Z,9.99
2018-03-11T06:59:03.209Z,10.02
2018-03-11T07:00:03.173Z,10.03
2018-03-11T07:01:03.167Z,10.07
2018-03-11T07:02:03.217Z,10.09
2018-03-11T07:03:03.169Z,10.12
2018-03-11T07:04:03.233Z,10.14
2018-03-11T07:05:03.202Z,10.14
2018-03-11T07:06:03.191Z,10.22
2018-03-11T07:07:03.183Z,10.24
2018-03-11T07:08:03.203Z,10.29
2018-03-11T07:09:03.211Z,10.29
2018-03-11T07:10:03.241Z,10.32
2018-03-11T07:11:03.208Z,10.32
2018-03-11T07:12:03.240Z,10.36
2018-03-11T07:13:03.295Z,10.38
2018-03-11T07:14:03.208Z,10.38
2018-03-11T07:15:03.216Z,10.38
2018-03-11T07:16:03.206Z,10.37
2018-03-11T07:17:03.211Z,10.39
2018-03-11T07:18:03.209Z,10.37
2018-03-11T07:19:03.214Z,10.37
2018-03-11T07:20:03.235Z,10.36
2018-03-11T07:21:03.212Z,10.37
2018-03-11T07:22:03.207Z,10.36
2018-03-11T07:23:03.230Z,10.33
2018-03-11T07:24:03.239Z,10.32
2018-03-11T07:25:03.301Z,10.32
2018-03-11T07:26:03.267Z,10.31
2018-03-11T07:27:03.300Z,10.3
2018-03-11T07:28:03.260Z,10.27
2018-03-11T07:29:03.260Z,10.29
2018-03-11T07:30:03.243Z,10.28
2018-03-11T07:31:03.283Z,10.27
2018-03-11T07:32:03.221Z,10.24
2018-03-11T07:33:03.234Z,10.24
2018-03-11T07:34:03.238Z,10.24
2018-03-11T07:35:03.280Z,10.21
2018-03-11T07:36:03.737Z,10.24
2018-03-11T07:37:03.247Z,10.2
2018-03-11T07:38:03.266Z,10.21
2018-03-11T07:39:03.249Z,10.24
2018-03-11T07:40:03.336Z,10.22
2018-03-11T07:41:03.317Z,10.22
2018-03-11T07:42:03.274Z,10.21
2018-03-11T07:43:03.280Z,10.24
2018-03-11T07:44:03.276Z,10.22
2018-03-11T07:45:03.335Z,10.26
2018-03-11T07:46:03.320Z,10.28
2018-03-11T07:47:03.282Z,10.31
2018-03-11T07:48:03.331Z,10.32
2018-03-11T07:49:03.296Z,10.34
2018-03-11T07:50:03.331Z,10.37
2018-03-11T07:51:03.292Z,10.38
2018-03-11T07:52:03.295Z,10.39
2018-03-11T07:53:03.296Z,10.42
2018-03-11T07:54:03.377Z,10.42
2018-03-11T07:55:03.318Z,10.46
2018-03-11T07:56:03.320Z,10.46
2018-03-11T07:57:03.345Z,10.49
2018-03-11T07:58:03.348Z,10.5
2018-03-11T07:59:03.371Z,10.51
2018-03-11T08:00:03.337Z,10.54
2018-03-11T08:01:03.343Z,10.56
2018-03-11T08:02:03.319Z,10.56
2018-03-11T08:03:03.345Z,10.56
2018-03-11T08:04:03.361Z,10.57
2018-03-11T08:05:04.421Z,10.58
2018-03-11T08:06:03.365Z,10.57
2018-03-11T08:07:03.409Z,10.61
2018-03-11T08:08:03.366Z,10.59
2018-03-11T08:09:03.381Z,10.61
2018-03-11T08:10:03.402Z,10.59
2018-03-11T08:11:03.368Z,10.59
2018-03-11T08:12:03.374Z,10.62
2018-03-11T08:13:03.387Z,10.62
2018-03-11T08:14:03.390Z,10.61
2018-03-11T08:15:03.386Z,10.59
2018-03-11T08:16:03.388Z,10.62
2018-03-11T08:17:03.394Z,10.62
2018-03-11T08:18:03.392Z,10.62
2018-03-11T08:19:03.408Z,10.62
2018-03-11T08:20:03.451Z,10.6
2018-03-11T08:21:03.426Z,10.61
2018-03-11T08:22:03.500Z,10.62
2018-03-11T08:23:03.479Z,10.63
2018-03-11T08:24:03.419Z,10.62
2018-03-11T08:25:03.411Z,10.59
2018-03-11T08:26:03.409Z,10.62
2018-03-11T08:27:03.438Z,10.62
2018-03-11T08:28:03.430Z,10.62
2018-03-11T08:29:03.441Z,10.59
2018-03-11T08:30:03.430Z,10.61
2018-03-11T08:31:03.420Z,10.61
2018-03-11T08:32:03.420Z,10.59
2018-03-11T08:33:03.535Z,10.6
2018-03-11T08:34:03.433Z,10.59
2018-03-11T08:35:03.442Z,10.58
2018-03-11T08:36:03.934Z,10.61
2018-03-11T08:37:03.451Z,10.58
2018-03-11T08:38:03.483Z,10.6
2018-03-11T08:39:03.472Z,10.6
2018-03-11T08:40:03.464Z,10.59
2018-03-11T08:41:03.443Z,10.59
2018-03-11T08:42:03.474Z,10.59
2018-03-11T08:43:03.458Z,10.6
2018-03-11T08:44:03.459Z,10.58
2018-03-11T08:45:03.599Z,10.58
2018-03-11T08:46:03.468Z,10.61
2018-03-11T08:47:03.455Z,10.61
2018-03-11T08:48:03.458Z,10.61
2018-03-11T08:49:03.472Z,10.61
2018-03-11T08:50:03.491Z,10.62
2018-03-11T08:51:03.479Z,10.6
2018-03-11T08:52:03.492Z,10.62
2018-03-11T08:53:03.484Z,10.61
2018-03-11T08:54:03.483Z,10.59
2018-03-11T08:55:03.508Z,10.61
2018-03-11T08:56:03.502Z,10.61
2018-03-11T08:57:03.525Z,10.61
2018-03-11T08:58:03.537Z,10.6
2018-03-11T08:59:03.575Z,10.62
2018-03-11T09:00:03.524Z,10.6
2018-03-11T09:01:03.566Z,10.61
2018-03-11T09:02:03.523Z,10.59
2018-03-11T09:03:03.529Z,10.6
2018-03-11T09:04:03.542Z,10.62
2018-03-11T09:05:03.983Z,10.6
2018-03-11T09:06:03.513Z,10.61
2018-03-11T09:07:03.552Z,10.59
2018-03-11T09:08:03.528Z,10.61
2018-03-11T09:09:03.535Z,10.59
2018-03-11T09:10:03.558Z,10.6
2018-03-11T09:11:03.558Z,10.6
2018-03-11T09:12:03.558Z,10.58
2018-03-11T09:13:03.553Z,10.6
2018-03-11T09:14:03.570Z,10.59
2018-03-11T09:15:03.578Z,10.6
2018-03-11T09:16:03.593Z,10.6
2018-03-11T09:17:03.593Z,10.6
2018-03-11T09:18:03.588Z,10.6
2018-03-11T09:19:03.604Z,10.61
2018-03-11T09:20:03.600Z,10.59
2018-03-11T09:21:03.598Z,10.61
2018-03-11T09:22:03.630Z,10.62
2018-03-11T09:23:03.589Z,10.63
2018-03-11T09:24:03.594Z,10.62
2018-03-11T09:25:03.600Z,10.63
2018-03-11T09:26:03.661Z,10.62
2018-03-11T09:27:03.659Z,10.63
2018-03-11T09:28:03.612Z,10.63
2018-03-11T09:29:03.643Z,10.66
2018-03-11T09:30:03.620Z,10.66
2018-03-11T09:31:03.630Z,10.64
2018-03-11T09:32:03.638Z,10.68
2018-03-11T09:33:03.773Z,10.68
2018-03-11T09:34:03.809Z,10.7
2018-03-11T09:35:03.760Z,10.72
2018-03-11T09:36:03.758Z,10.72
2018-03-11T09:37:03.750Z,10.74
2018-03-11T09:38:03.787Z,10.74
2018-03-11T09:39:03.793Z,10.77
2018-03-11T09:40:03.721Z,10.76
2018-03-11T09:41:03.844Z,10.79
2018-03-11T09:42:03.760Z,10.79
2018-03-11T09:43:03.768Z,10.8
2018-03-11T09:44:03.765Z,10.83
2018-03-11T09:45:03.857Z,10.82
2018-03-11T09:46:03.691Z,10.81
2018-03-11T09:47:03.685Z,10.83
2018-03-11T09:48:03.679Z,10.82
2018-03-11T09:49:03.797Z,10.84
2018-03-11T09:50:03.699Z,10.81
2018-03-11T09:51:03.679Z,10.83
2018-03-11T09:52:03.728Z,10.85
2018-03-11T09:53:03.714Z,10.85
2018-03-11T09:54:03.714Z,10.85
2018-03-11T09:55:03.756Z,10.85
2018-03-11T09:56:03.737Z,10.86
2018-03-11T09:57:03.727Z,10.86
2018-03-11T09:58:03.799Z,10.86
2018-03-11T09:59:03.752Z,10.86
2018-03-11T10:00:03.751Z,10.87
2018-03-11T10:01:03.738Z,10.88
2018-03-11T10:02:04.216Z,10.9
2018-03-11T10:03:03.976Z,10.87
2018-03-11T10:04:03.759Z,10.88
2018-03-11T10:05:03.764Z,10.9
2018-03-11T10:06:03.763Z,10.9
2018-03-11T10:07:03.801Z,10.92
2018-03-11T10:08:03.772Z,10.92
2018-03-11T10:09:03.833Z,10.92
2018-03-11T10:10:03.763Z,10.94
2018-03-11T10:11:03.772Z,10.95
2018-03-11T10:12:03.772Z,10.97
2018-03-11T10:13:03.803Z,10.96
2018-03-11T10:14:03.831Z,10.98
2018-03-11T10:15:03.814Z,10.97
2018-03-11T10:16:03.786Z,10.98
2018-03-11T10:17:03.782Z,10.98
2018-03-11T10:18:04.067Z,10.98
2018-03-11T10:19:03.833Z,10.99
2018-03-11T10:20:03.820Z,11
2018-03-11T10:21:04.271Z,11
2018-03-11T10:22:03.795Z,11.01
2018-03-11T10:23:03.852Z,11.01
2018-03-11T10:24:03.818Z,11.04
2018-03-11T10:25:03.949Z,11.06
2018-03-11T10:26:03.798Z,11.06
2018-03-11T10:27:03.819Z,11.07
2018-03-11T10:28:04.075Z,11.08
2018-03-11T10:29:03.830Z,11.1
2018-03-11T10:30:04.922Z,11.08
2018-03-11T10:31:03.837Z,11.12
2018-03-11T10:32:03.879Z,11.12
2018-03-11T10:33:04.008Z,11.13
2018-03-11T10:34:03.853Z,11.15
2018-03-11T10:35:03.856Z,11.15
2018-03-11T10:36:03.850Z,11.17
2018-03-11T10:37:03.930Z,11.19
2018-03-11T10:38:03.846Z,11.19
2018-03-11T10:39:03.839Z,11.22
2018-03-11T10:40:03.935Z,11.2
2018-03-11T10:41:03.852Z,11.24
2018-03-11T10:42:03.933Z,11.22
2018-03-11T10:43:03.865Z,11.24
2018-03-11T10:44:03.869Z,11.25
2018-03-11T10:45:04.015Z,11.26
2018-03-11T10:46:03.871Z,11.26
2018-03-11T10:47:03.954Z,11.27
2018-03-11T10:48:03.887Z,11.29
2018-03-11T10:49:03.880Z,11.3
2018-03-11T10:50:03.871Z,11.31
2018-03-11T10:51:03.896Z,11.3
2018-03-11T10:52:03.923Z,11.28
2018-03-11T10:53:04.321Z,11.34
2018-03-11T10:54:03.969Z,11.32
2018-03-11T10:55:03.923Z,11.33
2018-03-11T10:56:03.917Z,11.33
2018-03-11T10:57:03.935Z,11.34
2018-03-11T10:58:04.136Z,11.36
2018-03-11T10:59:03.956Z,11.37
2018-03-11T11:00:03.940Z,11.39
2018-03-11T11:01:03.915Z,11.38
2018-03-11T11:02:04.096Z,11.39
2018-03-11T11:03:03.956Z,11.41
2018-03-11T11:04:03.936Z,11.41
2018-03-11T11:05:04.014Z,11.44
2018-03-11T11:06:03.933Z,11.44
2018-03-11T11:07:04.006Z,11.44
2018-03-11T11:08:03.974Z,11.48
2018-03-11T11:09:03.940Z,11.46
2018-03-11T11:10:03.943Z,11.46
2018-03-11T11:11:04.014Z,11.47
2018-03-11T11:12:09.491Z,11.53
2018-03-11T11:13:08.088Z,11.53
2018-03-11T11:14:05.296Z,11.52
2018-03-11T11:15:03.979Z,11.55
2018-03-11T11:16:04.013Z,11.55
2018-03-11T11:17:04.014Z,11.55
2018-03-11T11:18:04.041Z,11.55
2018-03-11T11:19:04.052Z,11.57
2018-03-11T11:20:03.997Z,11.58
2018-03-11T11:21:04.056Z,11.58
2018-03-11T11:22:15.472Z,11.59
2018-03-11T11:23:20.479Z,11.62
2018-03-11T11:24:04.029Z,11.63
2018-03-11T11:25:04.093Z,11.64
2018-03-11T11:26:04.089Z,11.65
2018-03-11T11:27:04.029Z,11.68
2018-03-11T11:28:04.028Z,11.7
2018-03-11T11:29:04.136Z,11.7
2018-03-11T11:30:04.049Z,11.7
2018-03-11T11:31:04.122Z,11.73
2018-03-11T11:32:04.082Z,11.76
2018-03-11T11:33:04.074Z,11.76
2018-03-11T11:34:04.103Z,11.81
2018-03-11T11:35:04.067Z,11.81
2018-03-11T11:36:04.070Z,11.82
2018-03-11T11:37:04.084Z,11.82
2018-03-11T11:38:04.248Z,11.84
2018-03-11T11:39:04.083Z,11.87
2018-03-11T11:40:04.145Z,11.86
2018-03-11T11:41:04.079Z,11.92
2018-03-11T11:42:04.094Z,11.94
2018-03-11T11:43:04.177Z,11.99
2018-03-11T11:44:04.116Z,12.02
2018-03-11T11:45:04.106Z,12.03
2018-03-11T11:46:04.440Z,12.06
2018-03-11T11:47:04.153Z,12.1
2018-03-11T11:48:04.128Z,12.13
2018-03-11T11:49:04.111Z,12.15
2018-03-11T11:50:04.128Z,12.19
2018-03-11T11:51:04.130Z,12.23
2018-03-11T11:52:04.144Z,12.25
2018-03-11T11:53:04.213Z,12.26
2018-03-11T11:54:04.142Z,12.29
2018-03-11T11:55:04.127Z,12.28
2018-03-11T11:56:04.175Z,12.33
2018-03-11T11:57:04.141Z,12.32
2018-03-11T11:58:04.387Z,12.33
2018-03-11T11:59:04.158Z,12.37
2018-03-11T12:00:04.146Z,12.4
2018-03-11T12:01:04.173Z,12.44
2018-03-11T12:02:04.147Z,12.46
2018-03-11T12:03:04.171Z,12.48
2018-03-11T12:04:04.183Z,12.49
2018-03-11T12:05:04.182Z,12.5
2018-03-11T12:06:04.153Z,12.52
2018-03-11T12:07:04.570Z,12.51
2018-03-11T12:08:04.193Z,12.56
2018-03-11T12:09:04.177Z,12.57
2018-03-11T12:10:04.257Z,12.61
2018-03-11T12:11:04.188Z,12.65
2018-03-11T12:12:04.433Z,12.7
2018-03-11T12:13:04.250Z,12.73
2018-03-11T12:14:04.212Z,12.75
2018-03-11T12:15:04.211Z,12.8
2018-03-11T12:16:04.205Z,12.87
2018-03-11T12:17:04.251Z,12.91
2018-03-11T12:18:04.247Z,12.96
2018-03-11T12:19:04.255Z,12.99
2018-03-11T12:20:04.232Z,13.06
2018-03-11T12:21:04.264Z,13.12
2018-03-11T12:22:04.244Z,13.21
2018-03-11T12:23:04.258Z,13.24
2018-03-11T12:24:04.248Z,13.26
2018-03-11T12:25:04.220Z,13.34
2018-03-11T12:26:04.248Z,13.36
2018-03-11T12:27:04.250Z,13.37
2018-03-11T12:28:04.523Z,13.42
2018-03-11T12:29:04.247Z,13.42
2018-03-11T12:30:04.251Z,13.4
2018-03-11T12:31:04.246Z,13.37
2018-03-11T12:32:04.273Z,13.39
2018-03-11T12:33:04.300Z,13.4
2018-03-11T12:34:04.276Z,13.4
2018-03-11T12:35:04.294Z,13.41
2018-03-11T12:36:04.281Z,13.42
2018-03-11T12:37:04.277Z,13.44
2018-03-11T12:38:04.267Z,13.45
2018-03-11T12:39:04.268Z,13.48
2018-03-11T12:40:04.306Z,13.51
2018-03-11T12:41:04.721Z,13.53
2018-03-11T12:42:04.313Z,13.54
2018-03-11T12:43:04.292Z,13.58
2018-03-11T12:44:04.287Z,13.6
2018-03-11T12:45:04.311Z,13.62
2018-03-11T12:46:04.330Z,13.63
2018-03-11T12:47:04.538Z,13.62
2018-03-11T12:48:04.301Z,13.65
2018-03-11T12:49:04.296Z,13.67
2018-03-11T12:50:04.358Z,13.71
2018-03-11T12:51:04.340Z,13.75
2018-03-11T12:52:04.301Z,13.8
2018-03-11T12:53:04.320Z,13.78
2018-03-11T12:54:04.319Z,13.79
2018-03-11T12:55:04.355Z,13.82
2018-03-11T12:56:04.363Z,13.84
2018-03-11T12:57:04.362Z,13.93
2018-03-11T12:58:04.572Z,13.96
2018-03-11T12:59:04.325Z,14
2018-03-11T13:00:04.329Z,14.01
2018-03-11T13:01:04.593Z,14.04
2018-03-11T13:02:04.319Z,14.08
2018-03-11T13:03:04.346Z,14.09
2018-03-11T13:04:04.354Z,14.08
2018-03-11T13:05:04.348Z,14.08
2018-03-11T13:06:04.393Z,14.08
2018-03-11T13:07:04.356Z,14.1